Flight Track Log - Related Links

Times and Time Zones

All times are in EDT time to prevent confusion due to time zone crossing. See the SWA3206 flight status page for this flight to view local times or setup timezone preferences in your user account.

Time Position Orientation Groundspeed Altitude Reporting Facility
EDT Latitude Longitude Course Direction KTS MPH feet Rate Location/Type
Sun 11:06:44 AM 39.8667 -75.2667 247° West 144 166 700  Level Philadelphia TRACON
Sun 11:07:38 AM 39.8500 -75.3167 247° West 193 222 2,600 2,211 Climbing Philadelphia TRACON
Sun 11:08:38 AM 39.8667 -75.3833 288° West 222 255 4,900 2,579 Climbing Philadelphia TRACON
Sun 11:09:32 AM 39.9167 -75.4167 333° Northwest 262 302 7,500 3,053 Climbing Philadelphia TRACON
Sun 11:10:32 AM 40.0000 -75.4500 343° North 304 350 10,700 2,653 Climbing Philadelphia TRACON
Sun 11:11:07 AM 40.0406 -75.4750 335° Northwest 357 411 11,700 1,516 Climbing New York Center
Sun 11:12:07 AM 40.1264 -75.5161 340° North 382 440 13,100 2,085 Climbing New York Center
Sun 11:13:05 AM 40.2306 -75.5722 338° Northwest 376 433 15,800 1,932 Climbing New York Center
Sun 11:14:05 AM 40.2894 -75.6606 311° West 364 419 16,900 550 Climbing New York Center
Sun 11:15:05 AM 40.3522 -75.7550 311° West 350 403 16,900 99 Level New York Center
Sun 11:16:06 AM 40.4225 -75.8636 310° West 355 409 17,100 1,328 Climbing New York Center
Sun 11:17:07 AM 40.4511 -75.9722 289° West 355 409 19,600 2,678 Climbing New York Center
Sun 11:18:07 AM 40.4728 -76.0967 283° West 347 399 22,500 2,695 Climbing New York Center
Sun 11:19:05 AM 40.4939 -76.2267 282° West 352 405 24,900 1,261 Climbing New York Center
Sun 11:20:06 AM 40.5169 -76.3594 283° West 366 421 25,000 992 Climbing New York Center
Sun 11:21:06 AM 40.5397 -76.4925 283° West 376 433 26,900 1,750 Climbing New York Center
Sun 11:22:06 AM 40.5619 -76.6308 282° West 376 433 28,500 1,721 Climbing New York Center
Sun 11:23:08 AM 40.5839 -76.7750 281° West 388 447 30,400 1,866 Climbing New York Center
Sun 11:24:05 AM 40.6100 -76.9167 284° West 393 452 32,200 1,714 Climbing New York Center
Sun 11:25:07 AM 40.6339 -77.0583 283° West 393 452 33,800 1,400 Climbing New York Center
Sun 11:26:05 AM 40.6575 -77.2028 282° West 393 452 35,000 1,220 Climbing New York Center
Sun 11:27:05 AM 40.6808 -77.3472 282° West 399 459 36,200 1,131 Climbing New York Center
Sun 11:28:07 AM 40.7058 -77.4922 283° West 399 459 37,300 548 Climbing New York Center
Sun 11:30:22 AM 40.7597 -77.8444 282° West 409 471 38,000 215 Climbing Cleveland Center
Sun 11:31:22 AM 40.7842 -77.9944 282° West 415 478 38,000  Level Cleveland Center
Sun 11:32:22 AM 40.8061 -78.1389 281° West 415 478 38,000  Level Cleveland Center
Sun 11:33:22 AM 40.8300 -78.2861 282° West 410 472 38,000  Level Cleveland Center
Sun 11:34:22 AM 40.8536 -78.4308 282° West 410 472 38,000  Level Cleveland Center
Sun 11:35:22 AM 40.8772 -78.5758 282° West 410 472 38,000  Level Cleveland Center
Sun 11:36:22 AM 40.8983 -78.7178 281° West 405 466 38,000  Level Cleveland Center
Sun 11:37:22 AM 40.9194 -78.8603 281° West 405 466 38,000  Level Cleveland Center
Sun 11:38:22 AM 40.9400 -79.0025 281° West 405 466 38,000  Level Cleveland Center
Sun 11:39:22 AM 40.9586 -79.1425 280° West 405 466 38,000  Level Cleveland Center
Sun 11:40:22 AM 40.9814 -79.2878 282° West 405 466 38,000  Level Cleveland Center
Sun 11:41:22 AM 41.0017 -79.4303 281° West 405 466 38,000  Level Cleveland Center
Sun 11:42:22 AM 41.0217 -79.5703 281° West 405 466 38,000  Level Cleveland Center
Sun 11:43:22 AM 41.0436 -79.7131 282° West 405 466 38,000  Level Cleveland Center
Sun 11:44:22 AM 41.0592 -79.8450 279° West 405 466 38,000  Level Cleveland Center
Sun 11:45:22 AM 41.0808 -79.9881 281° West 410 472 38,000  Level Cleveland Center
Sun 11:46:22 AM 41.1003 -80.1339 280° West 410 472 38,000  Level Cleveland Center
Sun 11:47:22 AM 41.1194 -80.2800 280° West 410 472 38,000  Level Cleveland Center
Sun 11:48:22 AM 41.1406 -80.4453 280° West 410 472 38,000  Level Cleveland Center
Sun 11:49:22 AM 41.1617 -80.5914 281° West 410 472 38,000  Level Cleveland Center
Sun 11:50:22 AM 41.1803 -80.7375 280° West 410 472 38,000  Level Cleveland Center
Sun 11:51:22 AM 41.1986 -80.8839 279° West 410 472 38,000  Level Cleveland Center
Sun 11:52:22 AM 41.2169 -81.0303 279° West 410 472 38,000  Level Cleveland Center
Sun 11:53:22 AM 41.2331 -81.1603 279° West 410 472 38,000  Level Cleveland Center
Sun 11:54:22 AM 41.2531 -81.3067 280° West 410 472 38,000  Level Cleveland Center
Sun 11:55:22 AM 41.2728 -81.4533 280° West 404 465 38,000  Level Cleveland Center
Sun 11:56:22 AM 41.2906 -81.6000 279° West 404 465 38,000  Level Cleveland Center
Sun 11:57:22 AM 41.3100 -81.7469 280° West 409 471 38,000  Level Cleveland Center
Sun 11:58:22 AM 41.3250 -81.8964 278° West 409 471 38,000  Level Cleveland Center
Sun 11:59:22 AM 41.3461 -82.0464 281° West 409 471 38,000  Level Cleveland Center
Sun 12:00:22 PM 41.3606 -82.2153 277° West 419 482 38,000  Level Cleveland Center
Sun 12:01:22 PM 41.3689 -82.3567 275° West 427 491 38,000  Level Cleveland Center
Sun 12:02:22 PM 41.3767 -82.5119 274° West 422 486 38,000  Level Cleveland Center
Sun 12:03:22 PM 41.3844 -82.6617 274° West 422 486 38,000  Level Cleveland Center
Sun 12:04:22 PM 41.3942 -82.8169 275° West 422 486 38,000  Level Cleveland Center
Sun 12:05:22 PM 41.4033 -82.9722 275° West 422 486 38,000  Level Cleveland Center
Sun 12:06:22 PM 41.4106 -83.1219 274° West 422 486 38,000  Level Cleveland Center
Sun 12:07:22 PM 41.4192 -83.2914 274° West 422 486 38,000  Level Cleveland Center
Sun 12:08:22 PM 41.4239 -83.4383 273° West 422 486 38,000  Level Cleveland Center
Sun 12:09:22 PM 41.4325 -83.5911 274° West 422 486 38,000  Level Cleveland Center
Sun 12:10:22 PM 41.4389 -83.7408 273° West 422 486 38,000  Level Cleveland Center
Sun 12:11:22 PM 41.4439 -83.8631 273° West 417 480 38,000 -85 Level Cleveland Center
Sun 12:13:53 PM 41.4644 -84.2489 274° West 410 472 37,700 -845 Descending Chicago Center
Sun 12:14:55 PM 41.4717 -84.3969 274° West 404 465 35,000 -3,194 Descending Chicago Center
Sun 12:15:57 PM 41.4778 -84.5761 273° West 404 465 31,100 -2,439 Descending Chicago Center
Sun 12:16:58 PM 41.4831 -84.7214 273° West 394 453 30,000 -780 Descending Chicago Center
Sun 12:18:00 PM 41.4886 -84.8603 273° West 380 437 29,500 -726 Descending Chicago Center
Sun 12:19:02 PM 41.4936 -85.0000 273° West 377 434 28,500 -1,161 Descending Chicago Center
Sun 12:20:04 PM 41.4986 -85.1400 273° West 378 435 27,100 -1,355 Descending Chicago Center
Sun 12:21:06 PM 41.5031 -85.2728 273° West 362 417 25,700 -1,220 Descending Chicago Center
Sun 12:22:07 PM 41.5069 -85.4047 272° West 352 405 24,600 -1,073 Descending Chicago Center
Sun 12:23:09 PM 41.5106 -85.5361 272° West 347 399 23,500 -1,016 Descending Chicago Center
Sun 12:24:11 PM 41.5142 -85.6650 272° West 345 397 22,500 -1,065 Descending Chicago Center
Sun 12:25:13 PM 41.5192 -85.8164 273° West 341 392 21,300 -1,258 Descending Chicago Center
Sun 12:26:15 PM 41.5222 -85.9458 272° West 349 402 19,900 -1,756 Descending Chicago Center
Sun 12:27:16 PM 41.5247 -86.0703 272° West 338 389 17,700 -2,341 Descending Chicago Center
Sun 12:28:18 PM 41.5239 -86.1956 270° West 338 389 15,100 -2,516 Descending Chicago Center
Sun 12:29:20 PM 41.5228 -86.3172 269° West 330 380 12,500 -2,081 Descending Chicago Center
Sun 12:30:22 PM 41.5219 -86.4361 270° West 322 371 10,800 -1,210 Descending Chicago Center
Sun 12:31:24 PM 41.5211 -86.5519 269° West 314 361 10,000 -390 Descending Chicago Center
Sun 12:32:25 PM 41.5203 -86.6933 270° West 319 367 10,000  Level Chicago Center
Sun 12:33:27 PM 41.5203 -86.8097 270° West 301 346 10,000 -532 Level Chicago Center
Sun 12:34:29 PM 41.5186 -86.9058 269° West 264 304 8,900 -1,306 Descending Chicago Center
Sun 12:35:31 PM 41.5169 -87.0011 269° West 260 299 7,300 -1,415 Descending Chicago Center
Sun 12:36:32 PM 41.5172 -87.0950 270° West 255 293 6,000 -1,063 Descending Chicago Center
Sun 12:36:50 PM 41.5167 -87.1333 269° West 249 287 5,900 -833 Descending Chicago TRACON
Sun 12:37:44 PM 41.5333 -87.2167 285° West 247 284 5,000 -474 Descending Chicago TRACON
Sun 12:38:44 PM 41.5500 -87.2833 288° West 241 277 5,000 -263 Level Chicago TRACON
Sun 12:39:38 PM 41.5833 -87.3667 298° West 246 283 4,500 -517 Descending Chicago TRACON
Sun 12:40:40 PM 41.6133 -87.4431 298° West 242 278 4,000 -244 Descending Chicago Center
Sun 12:41:41 PM 41.6419 -87.5233 296° West 243 280 4,000  Level Chicago Center
Sun 12:42:43 PM 41.6689 -87.5925 298° West 230 265 4,000 -359 Level Chicago Center
Sun 12:43:38 PM 41.7000 -87.6500 306° West 175 201 3,300 -1,101 Descending Chicago TRACON
Sun 12:44:32 PM 41.7333 -87.6833 323° Northwest 163 188 2,000 -1,050 Descending Chicago TRACON
Sun 12:45:38 PM 41.7667 -87.7167 323° Northwest 127 146 1,200 -727 Descending Chicago TRACON
Sun 12:47:00 PM 41.7833 -87.7500 334° Northwest  Level FlightAware Approximate
Sun 12:54:00 PM 41.7860 -87.7524 334° Northwest  Level Estimated

Login

Don't have an account? Register now (free) for customized features, flight alerts, and more!